sensor_id;sensor_type;location;lat;lon;timestamp;temperature;humidity
10722;DHT22;5412;59.450;18.124;2022-12-10T00:01:09;-2.10;99.90
10722;DHT22;5412;59.450;18.124;2022-12-10T00:03:36;-2.30;99.90
10722;DHT22;5412;59.450;18.124;2022-12-10T00:06:03;-2.40;99.90
10722;DHT22;5412;59.450;18.124;2022-12-10T00:08:30;-2.40;99.90
10722;DHT22;5412;59.450;18.124;2022-12-10T00:10:56;-2.40;99.90
10722;DHT22;5412;59.450;18.124;2022-12-10T00:13:22;-2.50;99.90
10722;DHT22;5412;59.450;18.124;2022-12-10T00:15:48;-2.40;99.90
10722;DHT22;5412;59.450;18.124;2022-12-10T00:18:13;-2.30;99.90
10722;DHT22;5412;59.450;18.124;2022-12-10T00:20:39;-2.20;99.90
10722;DHT22;5412;59.450;18.124;2022-12-10T00:23:07;-2.10;99.90
10722;DHT22;5412;59.450;18.124;2022-12-10T00:25:36;-2.10;99.90
10722;DHT22;5412;59.450;18.124;2022-12-10T00:28:02;-2.10;99.90
10722;DHT22;5412;59.450;18.124;2022-12-10T00:30:27;-2.00;99.90
10722;DHT22;5412;59.450;18.124;2022-12-10T00:32:53;-2.00;99.90
10722;DHT22;5412;59.450;18.124;2022-12-10T00:35:19;-2.10;99.90
10722;DHT22;5412;59.450;18.124;2022-12-10T00:37:45;-2.10;99.90
10722;DHT22;5412;59.450;18.124;2022-12-10T00:40:11;-2.10;99.90
10722;DHT22;5412;59.450;18.124;2022-12-10T00:42:39;-2.00;99.90
10722;DHT22;5412;59.450;18.124;2022-12-10T00:45:05;-2.00;99.90
10722;DHT22;5412;59.450;18.124;2022-12-10T00:47:31;-1.90;99.90
10722;DHT22;5412;59.450;18.124;2022-12-10T00:50:00;-1.90;99.90
10722;DHT22;5412;59.450;18.124;2022-12-10T00:52:25;-1.80;99.90
10722;DHT22;5412;59.450;18.124;2022-12-10T00:54:51;-1.80;99.90
10722;DHT22;5412;59.450;18.124;2022-12-10T00:57:17;-1.80;99.90
10722;DHT22;5412;59.450;18.124;2022-12-10T00:59:42;-1.90;99.90
10722;DHT22;5412;59.450;18.124;2022-12-10T01:02:08;-1.90;99.90
10722;DHT22;5412;59.450;18.124;2022-12-10T01:04:34;-1.80;99.90
10722;DHT22;5412;59.450;18.124;2022-12-10T01:07:00;-1.80;99.90
10722;DHT22;5412;59.450;18.124;2022-12-10T01:09:28;-1.80;99.90
10722;DHT22;5412;59.450;18.124;2022-12-10T01:11:56;-1.80;99.90
10722;DHT22;5412;59.450;18.124;2022-12-10T01:14:26;-1.80;99.90
10722;DHT22;5412;59.450;18.124;2022-12-10T01:16:57;-1.80;99.90
10722;DHT22;5412;59.450;18.124;2022-12-10T01:19:23;-1.70;99.90
10722;DHT22;5412;59.450;18.124;2022-12-10T01:21:51;-1.80;99.90
10722;DHT22;5412;59.450;18.124;2022-12-10T01:24:17;-1.80;99.90
10722;DHT22;5412;59.450;18.124;2022-12-10T01:26:43;-1.80;99.90
10722;DHT22;5412;59.450;18.124;2022-12-10T01:29:10;-1.80;99.90
10722;DHT22;5412;59.450;18.124;2022-12-10T01:31:37;-1.70;99.90
10722;DHT22;5412;59.450;18.124;2022-12-10T01:34:04;-1.60;99.90
10722;DHT22;5412;59.450;18.124;2022-12-10T01:36:36;-1.60;99.90
10722;DHT22;5412;59.450;18.124;2022-12-10T01:39:03;-1.60;99.90
10722;DHT22;5412;59.450;18.124;2022-12-10T01:41:36;-1.60;99.90
10722;DHT22;5412;59.450;18.124;2022-12-10T01:46:51;-1.70;99.90
10722;DHT22;5412;59.450;18.124;2022-12-10T01:49:22;-1.80;99.90
10722;DHT22;5412;59.450;18.124;2022-12-10T01:51:52;-1.60;99.90
10722;DHT22;5412;59.450;18.124;2022-12-10T01:54:28;-1.60;99.90
10722;DHT22;5412;59.450;18.124;2022-12-10T01:56:59;-1.50;99.90
10722;DHT22;5412;59.450;18.124;2022-12-10T01:59:25;-1.50;99.90
10722;DHT22;5412;59.450;18.124;2022-12-10T02:04:31;-1.50;99.90
10722;DHT22;5412;59.450;18.124;2022-12-10T02:07:13;-1.50;99.90
10722;DHT22;5412;59.450;18.124;2022-12-10T02:10:30;-1.60;99.90
10722;DHT22;5412;59.450;18.124;2022-12-10T02:12:53;-1.50;99.90
10722;DHT22;5412;59.450;18.124;2022-12-10T02:15:26;-1.40;99.90
10722;DHT22;5412;59.450;18.124;2022-12-10T02:17:59;-1.30;99.90
10722;DHT22;5412;59.450;18.124;2022-12-10T02:20:28;-1.20;99.90
10722;DHT22;5412;59.450;18.124;2022-12-10T02:23:02;-1.20;99.90
10722;DHT22;5412;59.450;18.124;2022-12-10T02:26:37;-1.10;99.90
10722;DHT22;5412;59.450;18.124;2022-12-10T02:29:01;-1.10;99.90
10722;DHT22;5412;59.450;18.124;2022-12-10T02:31:29;-1.10;99.90
10722;DHT22;5412;59.450;18.124;2022-12-10T02:33:58;-1.10;99.90
10722;DHT22;5412;59.450;18.124;2022-12-10T02:36:29;-1.10;99.90
10722;DHT22;5412;59.450;18.124;2022-12-10T02:38:56;-1.00;99.90
10722;DHT22;5412;59.450;18.124;2022-12-10T02:41:26;-1.00;99.90
10722;DHT22;5412;59.450;18.124;2022-12-10T02:43:54;-0.90;99.90
10722;DHT22;5412;59.450;18.124;2022-12-10T02:46:22;-0.90;99.90
10722;DHT22;5412;59.450;18.124;2022-12-10T02:48:50;-1.00;99.90
10722;DHT22;5412;59.450;18.124;2022-12-10T02:51:17;-0.90;99.90
10722;DHT22;5412;59.450;18.124;2022-12-10T02:53:44;-0.80;99.90
10722;DHT22;5412;59.450;18.124;2022-12-10T02:56:45;-0.80;99.90
10722;DHT22;5412;59.450;18.124;2022-12-10T02:59:19;-0.90;99.90
10722;DHT22;5412;59.450;18.124;2022-12-10T03:04:32;-0.90;99.90
10722;DHT22;5412;59.450;18.124;2022-12-10T03:07:03;-0.90;99.90
10722;DHT22;5412;59.450;18.124;2022-12-10T03:09:46;-0.90;99.90
10722;DHT22;5412;59.450;18.124;2022-12-10T03:12:21;-0.90;99.90
10722;DHT22;5412;59.450;18.124;2022-12-10T03:14:47;-1.00;99.90
10722;DHT22;5412;59.450;18.124;2022-12-10T03:17:13;-1.00;99.90
10722;DHT22;5412;59.450;18.124;2022-12-10T03:19:46;-0.90;99.90
10722;DHT22;5412;59.450;18.124;2022-12-10T03:22:13;-0.90;99.90
10722;DHT22;5412;59.450;18.124;2022-12-10T03:24:40;-0.90;99.90
10722;DHT22;5412;59.450;18.124;2022-12-10T03:27:07;-1.00;99.90
10722;DHT22;5412;59.450;18.124;2022-12-10T03:29:38;-1.00;99.90
10722;DHT22;5412;59.450;18.124;2022-12-10T03:32:06;-1.00;99.90
10722;DHT22;5412;59.450;18.124;2022-12-10T03:34:33;-1.00;99.90
10722;DHT22;5412;59.450;18.124;2022-12-10T03:36:59;-1.00;99.90
10722;DHT22;5412;59.450;18.124;2022-12-10T03:39:25;-1.00;99.90
10722;DHT22;5412;59.450;18.124;2022-12-10T03:41:52;-1.00;99.90
10722;DHT22;5412;59.450;18.124;2022-12-10T03:44:37;-1.10;99.90
10722;DHT22;5412;59.450;18.124;2022-12-10T03:47:04;-1.00;99.90
10722;DHT22;5412;59.450;18.124;2022-12-10T03:49:31;-0.90;99.90
10722;DHT22;5412;59.450;18.124;2022-12-10T03:51:56;-0.80;99.90
10722;DHT22;5412;59.450;18.124;2022-12-10T03:54:22;-0.70;99.90
10722;DHT22;5412;59.450;18.124;2022-12-10T03:56:48;-0.70;99.90
10722;DHT22;5412;59.450;18.124;2022-12-10T03:59:14;-0.70;99.90
10722;DHT22;5412;59.450;18.124;2022-12-10T04:01:41;-0.80;99.90
10722;DHT22;5412;59.450;18.124;2022-12-10T04:04:07;-0.80;99.90
10722;DHT22;5412;59.450;18.124;2022-12-10T04:06:33;-0.80;99.90
10722;DHT22;5412;59.450;18.124;2022-12-10T04:08:59;-0.80;99.90
10722;DHT22;5412;59.450;18.124;2022-12-10T04:11:25;-0.80;99.90
10722;DHT22;5412;59.450;18.124;2022-12-10T04:13:51;-0.90;99.90
10722;DHT22;5412;59.450;18.124;2022-12-10T04:16:36;-0.80;99.90
10722;DHT22;5412;59.450;18.124;2022-12-10T04:19:11;-0.90;99.90
10722;DHT22;5412;59.450;18.124;2022-12-10T04:21:38;-1.00;99.90
10722;DHT22;5412;59.450;18.124;2022-12-10T04:24:29;-1.10;99.90
10722;DHT22;5412;59.450;18.124;2022-12-10T04:27:27;-1.10;99.90
10722;DHT22;5412;59.450;18.124;2022-12-10T04:29:53;-1.20;99.90
10722;DHT22;5412;59.450;18.124;2022-12-10T04:32:20;-1.20;99.90
10722;DHT22;5412;59.450;18.124;2022-12-10T04:34:46;-1.30;99.90
10722;DHT22;5412;59.450;18.124;2022-12-10T04:37:13;-1.40;99.90
10722;DHT22;5412;59.450;18.124;2022-12-10T04:39:39;-1.30;99.90
10722;DHT22;5412;59.450;18.124;2022-12-10T04:42:06;-1.20;99.90
10722;DHT22;5412;59.450;18.124;2022-12-10T04:44:32;-1.10;99.90
10722;DHT22;5412;59.450;18.124;2022-12-10T04:46:57;-1.10;99.90
10722;DHT22;5412;59.450;18.124;2022-12-10T04:49:23;-1.10;99.90
10722;DHT22;5412;59.450;18.124;2022-12-10T04:51:50;-1.30;99.90
10722;DHT22;5412;59.450;18.124;2022-12-10T04:54:16;-1.20;99.90
10722;DHT22;5412;59.450;18.124;2022-12-10T04:56:42;-1.50;99.90
10722;DHT22;5412;59.450;18.124;2022-12-10T04:59:09;-1.60;99.90
10722;DHT22;5412;59.450;18.124;2022-12-10T05:01:35;-1.50;99.90
10722;DHT22;5412;59.450;18.124;2022-12-10T05:04:04;-1.50;99.90
10722;DHT22;5412;59.450;18.124;2022-12-10T05:06:31;-1.40;99.90
10722;DHT22;5412;59.450;18.124;2022-12-10T05:08:57;-1.40;99.90
10722;DHT22;5412;59.450;18.124;2022-12-10T05:11:25;-1.30;99.90
10722;DHT22;5412;59.450;18.124;2022-12-10T05:13:52;-1.20;99.90
10722;DHT22;5412;59.450;18.124;2022-12-10T05:16:20;-1.10;99.90
10722;DHT22;5412;59.450;18.124;2022-12-10T05:18:47;-1.00;99.90
10722;DHT22;5412;59.450;18.124;2022-12-10T05:21:15;-1.10;99.90
10722;DHT22;5412;59.450;18.124;2022-12-10T05:23:44;-1.20;99.90
10722;DHT22;5412;59.450;18.124;2022-12-10T05:26:16;-1.30;99.90
10722;DHT22;5412;59.450;18.124;2022-12-10T05:28:49;-1.30;99.90
10722;DHT22;5412;59.450;18.124;2022-12-10T05:31:24;-1.40;99.90
10722;DHT22;5412;59.450;18.124;2022-12-10T05:33:52;-1.30;99.90
10722;DHT22;5412;59.450;18.124;2022-12-10T05:36:21;-1.20;99.90
10722;DHT22;5412;59.450;18.124;2022-12-10T05:38:47;-1.10;99.90
10722;DHT22;5412;59.450;18.124;2022-12-10T05:41:18;-1.00;99.90
10722;DHT22;5412;59.450;18.124;2022-12-10T05:43:44;-1.00;99.90
10722;DHT22;5412;59.450;18.124;2022-12-10T05:46:13;-0.90;99.90
10722;DHT22;5412;59.450;18.124;2022-12-10T05:48:40;-0.90;99.90
10722;DHT22;5412;59.450;18.124;2022-12-10T05:51:12;-0.80;99.90
10722;DHT22;5412;59.450;18.124;2022-12-10T05:53:39;-0.90;99.90
10722;DHT22;5412;59.450;18.124;2022-12-10T05:56:08;-0.90;99.90
10722;DHT22;5412;59.450;18.124;2022-12-10T05:58:34;-0.90;99.90
10722;DHT22;5412;59.450;18.124;2022-12-10T06:01:05;-0.90;99.90
10722;DHT22;5412;59.450;18.124;2022-12-10T06:03:31;-1.00;99.90
10722;DHT22;5412;59.450;18.124;2022-12-10T06:05:56;-1.00;99.90
10722;DHT22;5412;59.450;18.124;2022-12-10T06:08:22;-1.00;99.90
10722;DHT22;5412;59.450;18.124;2022-12-10T06:10:48;-1.00;99.90
10722;DHT22;5412;59.450;18.124;2022-12-10T06:13:14;-1.00;99.90
10722;DHT22;5412;59.450;18.124;2022-12-10T06:15:41;-1.00;99.90
10722;DHT22;5412;59.450;18.124;2022-12-10T06:18:06;-1.10;99.90
10722;DHT22;5412;59.450;18.124;2022-12-10T06:20:32;-1.00;99.90
10722;DHT22;5412;59.450;18.124;2022-12-10T06:22:58;-1.10;99.90
10722;DHT22;5412;59.450;18.124;2022-12-10T06:25:24;-1.10;99.90
10722;DHT22;5412;59.450;18.124;2022-12-10T06:27:49;-1.10;99.90
10722;DHT22;5412;59.450;18.124;2022-12-10T06:30:15;-1.00;99.90
10722;DHT22;5412;59.450;18.124;2022-12-10T06:32:41;-0.90;99.90
10722;DHT22;5412;59.450;18.124;2022-12-10T06:35:09;-0.90;99.90
10722;DHT22;5412;59.450;18.124;2022-12-10T06:37:35;-1.00;99.90
10722;DHT22;5412;59.450;18.124;2022-12-10T06:40:03;-1.00;99.90
10722;DHT22;5412;59.450;18.124;2022-12-10T06:42:29;-1.00;99.90
10722;DHT22;5412;59.450;18.124;2022-12-10T06:44:54;-1.00;99.90
10722;DHT22;5412;59.450;18.124;2022-12-10T06:47:20;-1.10;99.90
10722;DHT22;5412;59.450;18.124;2022-12-10T06:49:46;-1.10;99.90
10722;DHT22;5412;59.450;18.124;2022-12-10T06:52:11;-1.00;99.90
10722;DHT22;5412;59.450;18.124;2022-12-10T06:54:37;-1.00;99.90
10722;DHT22;5412;59.450;18.124;2022-12-10T06:57:03;-1.10;99.90
10722;DHT22;5412;59.450;18.124;2022-12-10T06:59:28;-1.10;99.90
10722;DHT22;5412;59.450;18.124;2022-12-10T07:01:54;-1.40;99.90
10722;DHT22;5412;59.450;18.124;2022-12-10T07:04:20;-1.20;99.90
10722;DHT22;5412;59.450;18.124;2022-12-10T07:06:46;-1.30;99.90
10722;DHT22;5412;59.450;18.124;2022-12-10T07:09:12;-1.40;99.90
10722;DHT22;5412;59.450;18.124;2022-12-10T07:11:37;-1.40;99.90
10722;DHT22;5412;59.450;18.124;2022-12-10T07:14:03;-1.30;99.90
10722;DHT22;5412;59.450;18.124;2022-12-10T07:16:31;-1.20;99.90
10722;DHT22;5412;59.450;18.124;2022-12-10T07:18:59;-1.10;99.90
10722;DHT22;5412;59.450;18.124;2022-12-10T07:21:30;-1.10;99.90
10722;DHT22;5412;59.450;18.124;2022-12-10T07:24:00;-1.20;99.90
10722;DHT22;5412;59.450;18.124;2022-12-10T07:26:31;-1.20;99.90
10722;DHT22;5412;59.450;18.124;2022-12-10T07:28:59;-1.30;99.90
10722;DHT22;5412;59.450;18.124;2022-12-10T07:31:25;-1.20;99.90
10722;DHT22;5412;59.450;18.124;2022-12-10T07:33:52;-1.20;99.90
10722;DHT22;5412;59.450;18.124;2022-12-10T07:36:18;-1.10;99.90
10722;DHT22;5412;59.450;18.124;2022-12-10T07:38:45;-1.20;99.90
10722;DHT22;5412;59.450;18.124;2022-12-10T07:41:12;-1.30;99.90
10722;DHT22;5412;59.450;18.124;2022-12-10T07:43:39;-1.40;99.90
10722;DHT22;5412;59.450;18.124;2022-12-10T07:46:18;-1.30;99.90
10722;DHT22;5412;59.450;18.124;2022-12-10T07:48:46;-1.40;99.90
10722;DHT22;5412;59.450;18.124;2022-12-10T07:51:13;-1.40;99.90
10722;DHT22;5412;59.450;18.124;2022-12-10T07:53:39;-1.30;99.90
10722;DHT22;5412;59.450;18.124;2022-12-10T07:56:05;-1.20;99.90
10722;DHT22;5412;59.450;18.124;2022-12-10T07:58:31;-1.20;99.90
10722;DHT22;5412;59.450;18.124;2022-12-10T08:00:57;-1.00;99.90
10722;DHT22;5412;59.450;18.124;2022-12-10T08:03:23;-0.90;99.90
10722;DHT22;5412;59.450;18.124;2022-12-10T08:06:11;-0.90;99.90
10722;DHT22;5412;59.450;18.124;2022-12-10T08:08:36;-0.90;99.90
10722;DHT22;5412;59.450;18.124;2022-12-10T08:11:05;-0.90;99.90
10722;DHT22;5412;59.450;18.124;2022-12-10T08:13:32;-0.90;99.90
10722;DHT22;5412;59.450;18.124;2022-12-10T08:16:07;-0.80;99.90
10722;DHT22;5412;59.450;18.124;2022-12-10T08:18:33;-0.80;99.90
10722;DHT22;5412;59.450;18.124;2022-12-10T08:21:13;-0.80;99.90
10722;DHT22;5412;59.450;18.124;2022-12-10T08:23:40;-0.90;99.90
10722;DHT22;5412;59.450;18.124;2022-12-10T08:26:09;-0.80;99.90
10722;DHT22;5412;59.450;18.124;2022-12-10T08:28:35;-0.70;99.90
10722;DHT22;5412;59.450;18.124;2022-12-10T08:31:01;-0.70;99.90
10722;DHT22;5412;59.450;18.124;2022-12-10T08:33:27;-0.60;99.90
10722;DHT22;5412;59.450;18.124;2022-12-10T08:35:57;-0.60;99.90
10722;DHT22;5412;59.450;18.124;2022-12-10T08:38:23;-0.60;99.90
10722;DHT22;5412;59.450;18.124;2022-12-10T08:40:49;-0.60;99.90
10722;DHT22;5412;59.450;18.124;2022-12-10T08:43:15;-0.70;99.90
10722;DHT22;5412;59.450;18.124;2022-12-10T08:45:41;-0.80;99.90
10722;DHT22;5412;59.450;18.124;2022-12-10T08:48:06;-0.80;99.90
10722;DHT22;5412;59.450;18.124;2022-12-10T08:50:32;-0.80;99.90
10722;DHT22;5412;59.450;18.124;2022-12-10T08:52:58;-0.90;99.90
10722;DHT22;5412;59.450;18.124;2022-12-10T08:55:24;-1.00;99.90
10722;DHT22;5412;59.450;18.124;2022-12-10T08:57:50;-1.10;99.90
10722;DHT22;5412;59.450;18.124;2022-12-10T09:00:16;-1.10;99.90
10722;DHT22;5412;59.450;18.124;2022-12-10T09:02:42;-1.10;99.90
10722;DHT22;5412;59.450;18.124;2022-12-10T09:05:08;-1.10;99.90
10722;DHT22;5412;59.450;18.124;2022-12-10T09:07:34;-1.20;99.90
10722;DHT22;5412;59.450;18.124;2022-12-10T09:09:59;-1.10;99.90
10722;DHT22;5412;59.450;18.124;2022-12-10T09:12:25;-1.00;99.90
10722;DHT22;5412;59.450;18.124;2022-12-10T09:14:51;-1.00;99.90
10722;DHT22;5412;59.450;18.124;2022-12-10T09:17:17;-1.30;99.90
10722;DHT22;5412;59.450;18.124;2022-12-10T09:19:42;-1.20;99.90
10722;DHT22;5412;59.450;18.124;2022-12-10T09:22:08;-1.20;99.90
10722;DHT22;5412;59.450;18.124;2022-12-10T09:24:34;-1.10;99.90
10722;DHT22;5412;59.450;18.124;2022-12-10T09:27:00;-1.00;99.90
10722;DHT22;5412;59.450;18.124;2022-12-10T09:29:26;-1.00;99.90
10722;DHT22;5412;59.450;18.124;2022-12-10T09:31:52;-0.90;99.90
10722;DHT22;5412;59.450;18.124;2022-12-10T09:34:18;-0.80;99.90
10722;DHT22;5412;59.450;18.124;2022-12-10T09:36:44;-0.60;99.90
10722;DHT22;5412;59.450;18.124;2022-12-10T09:39:11;-0.70;99.90
10722;DHT22;5412;59.450;18.124;2022-12-10T09:44:53;-0.80;99.90
10722;DHT22;5412;59.450;18.124;2022-12-10T09:47:26;-0.80;99.90
10722;DHT22;5412;59.450;18.124;2022-12-10T09:52:40;-0.60;99.90
10722;DHT22;5412;59.450;18.124;2022-12-10T09:55:16;-0.80;99.90
10722;DHT22;5412;59.450;18.124;2022-12-10T09:57:46;-0.80;99.90
10722;DHT22;5412;59.450;18.124;2022-12-10T10:00:35;-0.70;99.90
10722;DHT22;5412;59.450;18.124;2022-12-10T10:03:03;-0.70;99.90
10722;DHT22;5412;59.450;18.124;2022-12-10T10:05:31;-0.60;99.90
10722;DHT22;5412;59.450;18.124;2022-12-10T10:08:06;-0.60;99.90
10722;DHT22;5412;59.450;18.124;2022-12-10T10:10:39;-0.60;99.90
10722;DHT22;5412;59.450;18.124;2022-12-10T10:13:14;-0.60;99.90
10722;DHT22;5412;59.450;18.124;2022-12-10T10:15:43;-0.50;99.90
10722;DHT22;5412;59.450;18.124;2022-12-10T10:18:15;-0.60;99.90
10722;DHT22;5412;59.450;18.124;2022-12-10T10:20:42;-0.50;99.90
10722;DHT22;5412;59.450;18.124;2022-12-10T10:23:08;-0.50;99.90
10722;DHT22;5412;59.450;18.124;2022-12-10T10:25:38;-0.60;99.90
10722;DHT22;5412;59.450;18.124;2022-12-10T10:28:04;-0.50;99.90
10722;DHT22;5412;59.450;18.124;2022-12-10T10:30:29;-0.70;99.90
10722;DHT22;5412;59.450;18.124;2022-12-10T10:32:57;-0.70;99.90
10722;DHT22;5412;59.450;18.124;2022-12-10T10:37:49;-0.80;99.90
10722;DHT22;5412;59.450;18.124;2022-12-10T10:40:30;-0.80;99.90
10722;DHT22;5412;59.450;18.124;2022-12-10T10:42:58;-0.80;99.90
10722;DHT22;5412;59.450;18.124;2022-12-10T10:45:52;-0.80;99.90
10722;DHT22;5412;59.450;18.124;2022-12-10T10:48:22;-0.60;99.90
10722;DHT22;5412;59.450;18.124;2022-12-10T10:50:53;-0.60;99.90
10722;DHT22;5412;59.450;18.124;2022-12-10T10:53:26;-0.70;99.90
10722;DHT22;5412;59.450;18.124;2022-12-10T10:55:55;-0.70;99.90
10722;DHT22;5412;59.450;18.124;2022-12-10T10:58:23;-0.80;99.90
10722;DHT22;5412;59.450;18.124;2022-12-10T11:00:54;-0.60;99.90
10722;DHT22;5412;59.450;18.124;2022-12-10T11:03:21;-0.60;99.90
10722;DHT22;5412;59.450;18.124;2022-12-10T11:05:47;-0.70;99.90
10722;DHT22;5412;59.450;18.124;2022-12-10T11:08:16;-0.60;99.90
10722;DHT22;5412;59.450;18.124;2022-12-10T11:11:18;-0.70;99.90
10722;DHT22;5412;59.450;18.124;2022-12-10T11:13:42;0.10;99.90
10722;DHT22;5412;59.450;18.124;2022-12-10T11:16:12;-0.50;99.90
10722;DHT22;5412;59.450;18.124;2022-12-10T11:18:41;-0.50;99.90
10722;DHT22;5412;59.450;18.124;2022-12-10T11:23:44;-0.40;99.90
10722;DHT22;5412;59.450;18.124;2022-12-10T11:35:48;-0.40;99.90
10722;DHT22;5412;59.450;18.124;2022-12-10T11:38:28;-0.30;99.90
10722;DHT22;5412;59.450;18.124;2022-12-10T11:41:38;-0.40;99.90
10722;DHT22;5412;59.450;18.124;2022-12-10T12:07:54;-0.50;99.90
10722;DHT22;5412;59.450;18.124;2022-12-10T12:10:41;-0.50;99.90
10722;DHT22;5412;59.450;18.124;2022-12-10T12:16:09;-0.40;99.90
10722;DHT22;5412;59.450;18.124;2022-12-10T12:21:18;-0.60;99.90
10722;DHT22;5412;59.450;18.124;2022-12-10T12:26:44;-0.60;99.90
10722;DHT22;5412;59.450;18.124;2022-12-10T12:31:52;-0.50;99.90
10722;DHT22;5412;59.450;18.124;2022-12-10T12:34:58;-0.70;99.90
10722;DHT22;5412;59.450;18.124;2022-12-10T12:37:17;-0.60;99.90
10722;DHT22;5412;59.450;18.124;2022-12-10T12:42:30;-0.80;99.90
10722;DHT22;5412;59.450;18.124;2022-12-10T12:45:03;-0.80;99.90
10722;DHT22;5412;59.450;18.124;2022-12-10T12:50:45;-0.80;99.90
10722;DHT22;5412;59.450;18.124;2022-12-10T12:53:20;-0.80;99.90
10722;DHT22;5412;59.450;18.124;2022-12-10T13:03:50;-0.50;99.90
10722;DHT22;5412;59.450;18.124;2022-12-10T13:06:22;-0.60;99.90
10722;DHT22;5412;59.450;18.124;2022-12-10T13:17:35;-0.80;99.90
10722;DHT22;5412;59.450;18.124;2022-12-10T13:20:31;-0.80;99.90
10722;DHT22;5412;59.450;18.124;2022-12-10T13:23:02;-0.80;99.90
10722;DHT22;5412;59.450;18.124;2022-12-10T13:28:30;-0.80;99.90
10722;DHT22;5412;59.450;18.124;2022-12-10T13:36:37;-0.90;99.90
10722;DHT22;5412;59.450;18.124;2022-12-10T13:39:37;-0.90;99.90
10722;DHT22;5412;59.450;18.124;2022-12-10T13:47:43;-1.10;99.90
10722;DHT22;5412;59.450;18.124;2022-12-10T13:53:18;-1.20;99.90
10722;DHT22;5412;59.450;18.124;2022-12-10T13:56:12;-1.30;99.90
10722;DHT22;5412;59.450;18.124;2022-12-10T13:58:59;-1.20;99.90
10722;DHT22;5412;59.450;18.124;2022-12-10T14:06:51;-1.30;99.90
10722;DHT22;5412;59.450;18.124;2022-12-10T14:09:25;-1.40;99.90
10722;DHT22;5412;59.450;18.124;2022-12-10T14:11:58;-1.40;99.90
10722;DHT22;5412;59.450;18.124;2022-12-10T14:14:39;-1.30;99.90
10722;DHT22;5412;59.450;18.124;2022-12-10T14:19:37;-1.20;99.90
10722;DHT22;5412;59.450;18.124;2022-12-10T14:22:07;-1.30;99.90
10722;DHT22;5412;59.450;18.124;2022-12-10T14:24:38;-1.30;99.90
10722;DHT22;5412;59.450;18.124;2022-12-10T14:27:17;-1.30;99.90
10722;DHT22;5412;59.450;18.124;2022-12-10T14:30:36;-1.20;99.90
10722;DHT22;5412;59.450;18.124;2022-12-10T14:32:38;-1.30;99.90
10722;DHT22;5412;59.450;18.124;2022-12-10T14:35:06;-1.20;99.90
10722;DHT22;5412;59.450;18.124;2022-12-10T14:37:36;-1.40;99.90
10722;DHT22;5412;59.450;18.124;2022-12-10T14:40:05;-1.30;99.90
10722;DHT22;5412;59.450;18.124;2022-12-10T14:42:31;-1.20;99.90
10722;DHT22;5412;59.450;18.124;2022-12-10T14:44:59;-1.20;99.90
10722;DHT22;5412;59.450;18.124;2022-12-10T14:47:26;-1.10;99.90
10722;DHT22;5412;59.450;18.124;2022-12-10T14:49:54;-1.20;99.90
10722;DHT22;5412;59.450;18.124;2022-12-10T14:52:23;-1.20;99.90
10722;DHT22;5412;59.450;18.124;2022-12-10T14:54:50;-1.10;99.90
10722;DHT22;5412;59.450;18.124;2022-12-10T14:58:10;-1.10;99.90
10722;DHT22;5412;59.450;18.124;2022-12-10T15:00:18;-1.20;99.90
10722;DHT22;5412;59.450;18.124;2022-12-10T15:03:07;-1.20;99.90
10722;DHT22;5412;59.450;18.124;2022-12-10T15:05:34;-1.10;99.90
10722;DHT22;5412;59.450;18.124;2022-12-10T15:08:22;-1.20;99.90
10722;DHT22;5412;59.450;18.124;2022-12-10T15:10:52;-1.20;99.90
10722;DHT22;5412;59.450;18.124;2022-12-10T15:13:34;-1.20;99.90
10722;DHT22;5412;59.450;18.124;2022-12-10T15:16:03;-1.30;99.90
10722;DHT22;5412;59.450;18.124;2022-12-10T15:18:36;-1.20;99.90
10722;DHT22;5412;59.450;18.124;2022-12-10T15:21:20;-1.10;99.90
10722;DHT22;5412;59.450;18.124;2022-12-10T15:23:47;-1.10;99.90
10722;DHT22;5412;59.450;18.124;2022-12-10T15:26:22;-1.10;99.90
10722;DHT22;5412;59.450;18.124;2022-12-10T15:28:51;-1.10;99.90
10722;DHT22;5412;59.450;18.124;2022-12-10T15:36:29;-1.20;99.90
10722;DHT22;5412;59.450;18.124;2022-12-10T15:38:57;-1.20;99.90
10722;DHT22;5412;59.450;18.124;2022-12-10T15:41:44;-1.40;99.90
10722;DHT22;5412;59.450;18.124;2022-12-10T15:44:37;-1.40;99.90
10722;DHT22;5412;59.450;18.124;2022-12-10T15:49:35;-1.40;99.90
10722;DHT22;5412;59.450;18.124;2022-12-10T15:52:02;-1.40;99.90
10722;DHT22;5412;59.450;18.124;2022-12-10T15:54:36;-1.30;99.90
10722;DHT22;5412;59.450;18.124;2022-12-10T15:57:29;-1.40;99.90
10722;DHT22;5412;59.450;18.124;2022-12-10T16:00:08;-1.50;99.90
10722;DHT22;5412;59.450;18.124;2022-12-10T16:05:21;-1.40;99.90
10722;DHT22;5412;59.450;18.124;2022-12-10T16:07:49;-1.40;99.90
10722;DHT22;5412;59.450;18.124;2022-12-10T16:10:20;-1.50;99.90
10722;DHT22;5412;59.450;18.124;2022-12-10T16:13:05;-1.50;99.90
10722;DHT22;5412;59.450;18.124;2022-12-10T16:15:39;-1.50;99.90
10722;DHT22;5412;59.450;18.124;2022-12-10T16:18:08;-1.60;99.90
10722;DHT22;5412;59.450;18.124;2022-12-10T16:20:43;-1.70;99.90
10722;DHT22;5412;59.450;18.124;2022-12-10T16:23:10;-1.60;99.90
10722;DHT22;5412;59.450;18.124;2022-12-10T16:25:38;-1.80;99.90
10722;DHT22;5412;59.450;18.124;2022-12-10T16:28:14;-1.70;99.90
10722;DHT22;5412;59.450;18.124;2022-12-10T16:30:46;-1.70;99.90
10722;DHT22;5412;59.450;18.124;2022-12-10T16:33:17;-1.70;99.90
10722;DHT22;5412;59.450;18.124;2022-12-10T16:35:44;-1.70;99.90
10722;DHT22;5412;59.450;18.124;2022-12-10T16:38:10;-1.70;99.90
10722;DHT22;5412;59.450;18.124;2022-12-10T16:40:38;-1.70;99.90
10722;DHT22;5412;59.450;18.124;2022-12-10T16:43:08;-1.80;99.90
10722;DHT22;5412;59.450;18.124;2022-12-10T16:45:42;-1.70;99.90
10722;DHT22;5412;59.450;18.124;2022-12-10T16:48:08;-1.80;99.90
10722;DHT22;5412;59.450;18.124;2022-12-10T16:50:34;-1.70;99.90
10722;DHT22;5412;59.450;18.124;2022-12-10T16:53:06;-1.60;99.90
10722;DHT22;5412;59.450;18.124;2022-12-10T16:55:37;-1.60;99.90
10722;DHT22;5412;59.450;18.124;2022-12-10T16:58:02;-1.60;99.90
10722;DHT22;5412;59.450;18.124;2022-12-10T17:00:28;-2.00;99.90
10722;DHT22;5412;59.450;18.124;2022-12-10T17:02:54;-1.80;99.90
10722;DHT22;5412;59.450;18.124;2022-12-10T17:05:31;-1.80;99.90
10722;DHT22;5412;59.450;18.124;2022-12-10T17:07:57;-1.70;99.90
10722;DHT22;5412;59.450;18.124;2022-12-10T17:10:24;-1.70;99.90
10722;DHT22;5412;59.450;18.124;2022-12-10T17:13:14;-1.60;99.90
10722;DHT22;5412;59.450;18.124;2022-12-10T17:15:41;-1.70;99.90
10722;DHT22;5412;59.450;18.124;2022-12-10T17:18:15;-1.60;99.90
10722;DHT22;5412;59.450;18.124;2022-12-10T17:20:41;-1.80;99.90
10722;DHT22;5412;59.450;18.124;2022-12-10T17:23:07;-1.70;99.90
10722;DHT22;5412;59.450;18.124;2022-12-10T17:25:33;-1.70;99.90
10722;DHT22;5412;59.450;18.124;2022-12-10T17:27:59;-1.70;99.90
10722;DHT22;5412;59.450;18.124;2022-12-10T17:30:25;-1.80;99.90
10722;DHT22;5412;59.450;18.124;2022-12-10T17:32:51;-1.70;99.90
10722;DHT22;5412;59.450;18.124;2022-12-10T17:35:19;-1.70;99.90
10722;DHT22;5412;59.450;18.124;2022-12-10T17:37:45;-1.70;99.90
10722;DHT22;5412;59.450;18.124;2022-12-10T17:40:18;-1.80;99.90
10722;DHT22;5412;59.450;18.124;2022-12-10T17:42:44;-1.80;99.90
10722;DHT22;5412;59.450;18.124;2022-12-10T17:45:14;-1.70;99.90
10722;DHT22;5412;59.450;18.124;2022-12-10T17:47:41;-1.80;99.90
10722;DHT22;5412;59.450;18.124;2022-12-10T17:52:44;-1.90;99.90